createdAt,value
2022-07-30T00:07:14.611Z,955.78
2022-07-30T00:22:17.065Z,955.71
2022-07-30T00:37:19.368Z,955.61
2022-07-30T00:52:21.646Z,955.65
2022-07-30T01:07:24.106Z,955.6
2022-07-30T01:22:30.612Z,955.55
2022-07-30T01:37:33.307Z,955.54
2022-07-30T01:52:35.583Z,955.68
2022-07-30T02:07:37.922Z,955.65
2022-07-30T02:22:40.222Z,955.76
2022-07-30T02:37:44.122Z,955.88
2022-07-30T02:52:46.832Z,956.06
2022-07-30T03:07:49.100Z,956.19
2022-07-30T03:22:51.446Z,956.37
2022-07-30T03:37:53.765Z,956.65
2022-07-30T03:52:56.089Z,956.93
2022-07-30T04:07:58.403Z,957.04
2022-07-30T04:23:02.207Z,957.37
2022-07-30T04:38:04.489Z,957.6
2022-07-30T04:53:06.838Z,957.71
2022-07-30T05:08:09.068Z,957.9
2022-07-30T05:23:11.379Z,957.96
2022-07-30T05:38:13.662Z,958.2
2022-07-30T05:53:15.983Z,958.43
2022-07-30T06:08:18.393Z,958.6
2022-07-30T06:23:20.698Z,958.71
2022-07-30T06:38:23.183Z,958.74
2022-07-30T06:53:25.562Z,958.84
2022-07-30T07:08:27.840Z,958.88
2022-07-30T07:23:41.668Z,958.95
2022-07-30T07:38:45.000Z,959.1
2022-07-30T07:54:05.731Z,959.15
2022-07-30T08:09:22.539Z,959.22
2022-07-30T08:24:24.727Z,959.26
2022-07-30T08:39:26.947Z,959.37
2022-07-30T08:54:29.212Z,959.49
2022-07-30T09:09:31.554Z,959.68
2022-07-30T09:24:34.492Z,959.89
2022-07-30T09:39:36.789Z,960.02
2022-07-30T09:54:39.038Z,960.25
2022-07-30T10:09:54.341Z,960.4
2022-07-30T10:24:56.579Z,960.51
2022-07-30T10:39:59.622Z,960.67
2022-07-30T10:55:01.972Z,960.69
2022-07-30T11:10:09.630Z,960.77
2022-07-30T11:25:13.066Z,960.93
2022-07-30T11:40:15.910Z,961.05
2022-07-30T11:55:28.655Z,961.13
2022-07-30T12:10:31.003Z,961.18
2022-07-30T12:25:33.347Z,961.29
2022-07-30T12:40:35.671Z,961.38
2022-07-30T12:55:38.166Z,961.45
2022-07-30T13:10:40.458Z,961.71
2022-07-30T13:25:42.781Z,961.72
2022-07-30T13:40:45.067Z,961.81
2022-07-30T13:55:47.421Z,961.9
2022-07-30T14:10:49.710Z,961.87
2022-07-30T14:25:52.287Z,961.81
2022-07-30T14:40:54.551Z,961.79
2022-07-30T14:55:56.909Z,961.64
2022-07-30T15:11:02.596Z,961.48
2022-07-30T15:26:08.454Z,961.47
2022-07-30T15:41:13.712Z,961.36
2022-07-30T15:56:16.394Z,961.25
2022-07-30T16:11:18.703Z,961.17
2022-07-30T16:26:20.949Z,960.96
2022-07-30T16:41:23.237Z,960.91
2022-07-30T16:56:25.556Z,960.81
2022-07-30T17:11:46.954Z,960.61
2022-07-30T17:26:54.479Z,960.46
2022-07-30T17:42:01.976Z,960.3
2022-07-30T17:57:05.487Z,960.12
2022-07-30T18:12:07.781Z,960
2022-07-30T18:27:10.052Z,959.81
2022-07-30T18:42:12.379Z,959.73
2022-07-30T18:57:14.820Z,959.51
2022-07-30T19:12:17.129Z,959.31
2022-07-30T19:27:19.424Z,959.09
2022-07-30T19:42:21.714Z,959.04
2022-07-30T19:57:24.049Z,958.8
2022-07-30T20:12:56.011Z,958.65
2022-07-30T20:27:59.249Z,958.49
2022-07-30T20:43:01.758Z,958.34
2022-07-30T20:58:13.891Z,958.23
2022-07-30T21:13:19.088Z,958.08
2022-07-30T21:28:27.177Z,957.92
2022-07-30T21:43:30.558Z,957.73
2022-07-30T21:58:36.071Z,957.6
2022-07-30T23:12:28.467Z,957.49
2022-07-30T23:27:32.755Z,956.86
2022-07-30T23:42:35.019Z,956.8
2022-07-30T23:57:37.428Z,956.69
